Time;durP1;ratioP1;P1;durP2;ratioP2;P2;SDS_P1;SDS_P2;PMS_P1;PMS_P2;Temp;Humidity;BMP_temperature;BMP_pressure;BME280_temperature;BME280_humidity;BME280_pressure;Samples;Min_cycle;Max_cycle;Signal;HPM_P1;HPM_P2
2023/05/04 00:02:01;;;;;;;11.23;6.07;;;;;;;;;;5166036;27;20047;-57
2023/05/04 00:04:27;;;;;;;9.25;5.65;;;;;;;;;;5167762;27;20129;-59
2023/05/04 00:06:54;;;;;;;7.88;5.93;;;;;;;;;;5164781;27;20568;-58
2023/05/04 00:09:20;;;;;;;9.38;5.97;;;;;;;;;;5164448;27;20166;-58
2023/05/04 00:11:47;;;;;;;6.93;5.72;;;;;;;;;;5164519;27;20051;-56
2023/05/04 00:14:13;;;;;;;6.80;6.10;;;;;;;;;;5166696;27;20050;-57
2023/05/04 00:16:40;;;;;;;10.57;6.30;;;;;;;;;;5165263;27;20049;-59
2023/05/04 00:19:07;;;;;;;7.82;6.57;;;;;;;;;;5166533;27;20174;-58
2023/05/04 00:21:33;;;;;;;6.43;5.57;;;;;;;;;;5167721;27;20082;-58
2023/05/04 00:24:01;;;;;;;10.45;6.10;;;;;;;;;;5165671;27;20490;-57
2023/05/04 00:26:27;;;;;;;8.23;6.45;;;;;;;;;;5166400;27;20062;-58
2023/05/04 00:28:54;;;;;;;12.02;6.85;;;;;;;;;;5165383;27;20495;-58
2023/05/04 00:31:20;;;;;;;13.48;6.35;;;;;;;;;;5164991;27;20108;-57
2023/05/04 00:33:47;;;;;;;7.53;5.43;;;;;;;;;;5165888;27;20194;-57
2023/05/04 00:36:13;;;;;;;8.32;6.00;;;;;;;;;;5160778;27;20062;-58
2023/05/04 00:38:47;;;;;;;10.15;5.60;;;;;;;;;;5146921;27;20247;-57
2023/05/04 00:41:14;;;;;;;9.25;6.13;;;;;;;;;;5166336;27;20139;-58
2023/05/04 00:43:41;;;;;;;10.85;6.35;;;;;;;;;;5166518;27;20122;-57
2023/05/04 00:46:08;;;;;;;7.55;5.35;;;;;;;;;;5163788;27;20051;-59
2023/05/04 00:48:34;;;;;;;15.32;5.88;;;;;;;;;;5165678;27;20521;-56
2023/05/04 00:51:01;;;;;;;6.95;5.47;;;;;;;;;;5166104;27;20047;-58
2023/05/04 00:53:27;;;;;;;7.25;5.93;;;;;;;;;;5165665;27;20549;-57
2023/05/04 00:55:54;;;;;;;9.02;4.97;;;;;;;;;;5166518;27;20513;-57
2023/05/04 00:58:21;;;;;;;8.10;6.20;;;;;;;;;;5165907;27;20047;-58
2023/05/04 01:00:47;;;;;;;8.80;5.82;;;;;;;;;;5164430;27;20444;-59
2023/05/04 01:03:14;;;;;;;8.18;5.32;;;;;;;;;;5163869;27;20065;-58
2023/05/04 01:05:50;;;;;;;13.25;5.97;;;;;;;;;;5148111;27;20177;-58
2023/05/04 01:08:17;;;;;;;6.93;5.50;;;;;;;;;;5163445;27;20190;-58
2023/05/04 01:10:48;;;;;;;9.82;5.57;;;;;;;;;;5165997;27;20508;-58
2023/05/04 01:13:15;;;;;;;6.05;4.78;;;;;;;;;;5163721;27;20501;-58
2023/05/04 01:15:42;;;;;;;8.80;5.15;;;;;;;;;;5164995;27;20099;-57
2023/05/04 01:18:08;;;;;;;8.30;4.82;;;;;;;;;;5164380;27;20536;-56
2023/05/04 01:20:35;;;;;;;8.43;5.78;;;;;;;;;;5166286;27;20053;-60
2023/05/04 01:23:01;;;;;;;12.55;5.25;;;;;;;;;;5164289;27;20509;-58
2023/05/04 01:25:31;;;;;;;9.23;5.20;;;;;;;;;;5166165;27;20047;-57
2023/05/04 01:28:09;;;;;;;7.00;5.50;;;;;;;;;;5165991;27;20062;-57
2023/05/04 01:30:37;;;;;;;6.07;5.32;;;;;;;;;;5163167;27;20050;-58
2023/05/04 01:33:05;;;;;;;8.07;5.50;;;;;;;;;;5128842;27;20051;-58
2023/05/04 01:35:31;;;;;;;7.88;4.75;;;;;;;;;;5129458;27;20104;-57
2023/05/04 01:37:58;;;;;;;6.13;4.80;;;;;;;;;;5165442;27;20526;-61
2023/05/04 01:40:24;;;;;;;7.13;5.32;;;;;;;;;;5165755;27;20050;-56
2023/05/04 01:42:51;;;;;;;6.93;5.65;;;;;;;;;;5165222;27;20042;-58
2023/05/04 01:45:18;;;;;;;6.97;5.25;;;;;;;;;;5164310;27;20082;-57
2023/05/04 01:47:44;;;;;;;7.32;5.22;;;;;;;;;;5166665;27;20086;-58
2023/05/04 01:50:11;;;;;;;8.85;6.90;;;;;;;;;;5165485;27;20050;-59
2023/05/04 01:52:37;;;;;;;7.97;5.28;;;;;;;;;;5164569;27;20059;-58
2023/05/04 01:55:04;;;;;;;7.72;5.57;;;;;;;;;;5164537;27;20053;-58
2023/05/04 01:57:30;;;;;;;7.45;5.47;;;;;;;;;;5164397;27;20415;-59
2023/05/04 01:59:56;;;;;;;8.90;5.70;;;;;;;;;;5164396;27;20051;-58
2023/05/04 02:02:23;;;;;;;11.35;5.50;;;;;;;;;;5164736;27;20055;-58
2023/05/04 02:04:50;;;;;;;8.55;5.43;;;;;;;;;;5165098;27;20051;-57
2023/05/04 02:07:16;;;;;;;8.63;4.53;;;;;;;;;;5146476;27;20055;-57
2023/05/04 02:09:42;;;;;;;6.65;4.90;;;;;;;;;;5145093;27;20524;-58
2023/05/04 02:12:09;;;;;;;7.57;5.00;;;;;;;;;;5164478;27;20491;-58
2023/05/04 02:14:35;;;;;;;7.78;5.72;;;;;;;;;;5164750;27;20356;-57
2023/05/04 02:17:01;;;;;;;7.75;5.20;;;;;;;;;;5164764;27;20051;-57
2023/05/04 02:19:28;;;;;;;7.25;4.93;;;;;;;;;;5164760;27;20055;-57
2023/05/04 02:21:55;;;;;;;9.10;5.38;;;;;;;;;;5165124;27;20493;-58
2023/05/04 02:24:21;;;;;;;12.65;5.72;;;;;;;;;;5164035;27;20567;-58
2023/05/04 02:26:48;;;;;;;10.27;5.13;;;;;;;;;;5164474;27;20445;-58
2023/05/04 02:29:14;;;;;;;7.75;5.10;;;;;;;;;;5164094;27;20051;-58
2023/05/04 02:31:41;;;;;;;8.65;5.38;;;;;;;;;;5168756;27;20462;-57
2023/05/04 02:34:07;;;;;;;8.95;5.30;;;;;;;;;;5168453;27;20069;-58
2023/05/04 02:36:34;;;;;;;5.90;5.25;;;;;;;;;;5167036;27;20057;-59
2023/05/04 02:39:00;;;;;;;6.38;5.00;;;;;;;;;;5168064;27;20871;-58
2023/05/04 02:41:26;;;;;;;10.77;5.22;;;;;;;;;;5168560;27;20047;-59
2023/05/04 02:43:53;;;;;;;7.20;4.88;;;;;;;;;;5167157;27;20055;-58
2023/05/04 02:46:19;;;;;;;6.40;5.15;;;;;;;;;;5167968;27;20138;-58
2023/05/04 02:48:45;;;;;;;9.45;5.22;;;;;;;;;;5167331;27;20076;-58
2023/05/04 02:51:12;;;;;;;7.95;5.10;;;;;;;;;;5167904;27;20051;-58
2023/05/04 02:53:38;;;;;;;7.38;5.15;;;;;;;;;;5168373;27;20063;-58
2023/05/04 02:56:05;;;;;;;9.40;5.47;;;;;;;;;;5167952;27;20513;-58
2023/05/04 02:58:31;;;;;;;8.85;5.47;;;;;;;;;;5166495;27;20051;-59
2023/05/04 03:00:57;;;;;;;8.02;5.20;;;;;;;;;;5168944;27;20134;-57
2023/05/04 03:03:25;;;;;;;8.40;5.07;;;;;;;;;;5149244;27;20141;-58
2023/05/04 03:05:52;;;;;;;8.07;4.88;;;;;;;;;;5143500;27;20576;-55
2023/05/04 03:08:18;;;;;;;7.10;4.80;;;;;;;;;;5154283;27;20075;-55
2023/05/04 03:10:44;;;;;;;6.82;5.13;;;;;;;;;;5165324;27;20494;-57
2023/05/04 03:13:11;;;;;;;7.82;5.68;;;;;;;;;;5166137;27;20157;-58
2023/05/04 03:15:37;;;;;;;9.48;5.50;;;;;;;;;;5167820;27;20134;-57
2023/05/04 03:18:04;;;;;;;8.30;5.15;;;;;;;;;;5167213;27;20477;-56
2023/05/04 03:20:30;;;;;;;11.90;5.97;;;;;;;;;;5167991;27;20334;-57
2023/05/04 03:22:56;;;;;;;9.38;4.90;;;;;;;;;;5166287;27;20138;-57
2023/05/04 03:25:23;;;;;;;7.25;4.82;;;;;;;;;;5163883;27;20060;-54
2023/05/04 03:27:49;;;;;;;8.20;5.47;;;;;;;;;;5165737;27;20508;-57
2023/05/04 03:30:16;;;;;;;13.68;6.95;;;;;;;;;;5167406;27;20054;-57
2023/05/04 03:32:42;;;;;;;8.57;5.80;;;;;;;;;;5166985;27;20059;-57
2023/05/04 03:35:08;;;;;;;8.98;5.68;;;;;;;;;;5149077;27;20108;-56
2023/05/04 03:37:35;;;;;;;9.77;5.45;;;;;;;;;;5161455;27;20164;-57
2023/05/04 03:40:02;;;;;;;8.57;5.22;;;;;;;;;;5167487;27;20051;-57
2023/05/04 03:42:29;;;;;;;8.18;6.18;;;;;;;;;;5167295;27;20493;-58
2023/05/04 03:44:55;;;;;;;10.93;5.85;;;;;;;;;;5167873;27;20115;-59
2023/05/04 03:47:22;;;;;;;12.50;5.28;;;;;;;;;;5165752;27;20487;-57
2023/05/04 03:49:48;;;;;;;9.65;5.75;;;;;;;;;;5164020;27;20051;-57
2023/05/04 03:52:14;;;;;;;8.70;5.55;;;;;;;;;;5159265;27;20053;-58
2023/05/04 03:54:41;;;;;;;9.52;5.22;;;;;;;;;;5166484;27;20142;-57
2023/05/04 03:57:07;;;;;;;7.30;5.45;;;;;;;;;;5154130;27;20055;-56
2023/05/04 03:59:33;;;;;;;7.43;6.22;;;;;;;;;;5146985;27;20066;-59
2023/05/04 04:02:00;;;;;;;11.10;5.25;;;;;;;;;;5145964;27;20084;-58
2023/05/04 04:04:26;;;;;;;7.57;5.57;;;;;;;;;;5128360;27;20577;-57
2023/05/04 04:06:53;;;;;;;8.65;5.68;;;;;;;;;;5157051;27;20051;-57
2023/05/04 04:09:19;;;;;;;9.13;5.22;;;;;;;;;;5154123;27;20055;-58
2023/05/04 04:11:46;;;;;;;8.60;5.82;;;;;;;;;;5146377;27;20548;-57
2023/05/04 04:14:12;;;;;;;11.60;6.40;;;;;;;;;;5156858;27;20084;-58
2023/05/04 04:16:39;;;;;;;10.93;6.10;;;;;;;;;;5163894;27;20155;-55
2023/05/04 04:19:05;;;;;;;9.93;6.03;;;;;;;;;;5146316;27;20084;-58
2023/05/04 04:21:32;;;;;;;11.18;5.50;;;;;;;;;;5145186;27;20055;-57
2023/05/04 04:23:59;;;;;;;9.30;5.68;;;;;;;;;;5156841;27;20586;-58
2023/05/04 04:26:25;;;;;;;17.42;6.03;;;;;;;;;;5165279;27;20151;-58
2023/05/04 04:28:52;;;;;;;8.13;5.00;;;;;;;;;;5164613;27;20145;-58
2023/05/04 04:31:18;;;;;;;8.27;5.20;;;;;;;;;;5147354;27;20062;-58
2023/05/04 04:33:46;;;;;;;10.00;5.63;;;;;;;;;;5164968;27;20539;-58
2023/05/04 04:36:15;;;;;;;9.75;5.30;;;;;;;;;;5164872;27;20057;-57
2023/05/04 04:38:42;;;;;;;8.20;5.57;;;;;;;;;;5166154;27;20547;-57
2023/05/04 04:41:08;;;;;;;7.85;5.57;;;;;;;;;;5165858;27;20544;-58
2023/05/04 04:43:35;;;;;;;9.75;6.30;;;;;;;;;;5166257;27;20497;-58
2023/05/04 04:46:02;;;;;;;9.70;5.38;;;;;;;;;;5165978;27;20485;-57
2023/05/04 04:48:30;;;;;;;10.68;6.25;;;;;;;;;;5166454;27;20103;-57
2023/05/04 04:50:57;;;;;;;11.77;6.30;;;;;;;;;;5167734;27;20106;-59
2023/05/04 04:53:24;;;;;;;10.52;5.53;;;;;;;;;;5167772;27;20540;-59
2023/05/04 04:55:51;;;;;;;11.48;6.22;;;;;;;;;;5167090;27;20050;-56
2023/05/04 04:58:17;;;;;;;10.77;6.03;;;;;;;;;;5166402;27;20050;-58
2023/05/04 05:00:44;;;;;;;13.65;6.15;;;;;;;;;;5166642;27;20096;-58
2023/05/04 05:03:10;;;;;;;8.07;5.80;;;;;;;;;;5166502;27;20082;-58
2023/05/04 05:05:37;;;;;;;10.77;6.72;;;;;;;;;;5166055;27;20054;-57
2023/05/04 05:08:03;;;;;;;10.48;6.43;;;;;;;;;;5166053;27;20169;-58
2023/05/04 05:10:30;;;;;;;9.88;5.85;;;;;;;;;;5165805;27;20160;-57
2023/05/04 05:12:56;;;;;;;8.98;5.97;;;;;;;;;;5166136;27;20115;-58
2023/05/04 05:15:22;;;;;;;8.77;6.30;;;;;;;;;;5165378;27;20051;-58
2023/05/04 05:17:49;;;;;;;10.80;6.95;;;;;;;;;;5164363;27;20053;-58
2023/05/04 05:20:15;;;;;;;8.23;6.10;;;;;;;;;;5164856;27;20047;-57
2023/05/04 05:22:42;;;;;;;7.13;5.88;;;;;;;;;;5166207;27;20090;-55
2023/05/04 05:25:08;;;;;;;10.52;6.32;;;;;;;;;;5165509;27;20137;-57
2023/05/04 05:27:35;;;;;;;10.95;7.15;;;;;;;;;;5164023;27;20085;-56
2023/05/04 05:30:02;;;;;;;9.02;6.20;;;;;;;;;;5165463;27;20064;-57
2023/05/04 05:32:29;;;;;;;11.32;7.10;;;;;;;;;;5161695;27;20540;-56
2023/05/04 05:34:56;;;;;;;8.07;6.38;;;;;;;;;;5165724;27;20062;-58
2023/05/04 05:37:22;;;;;;;15.25;7.22;;;;;;;;;;5165541;27;20058;-59
2023/05/04 05:39:49;;;;;;;13.10;6.80;;;;;;;;;;5179367;27;20051;-58
2023/05/04 05:42:15;;;;;;;7.88;5.93;;;;;;;;;;5159642;27;20053;-57
2023/05/04 05:44:41;;;;;;;16.00;7.00;;;;;;;;;;5151929;27;20051;-59
2023/05/04 05:47:08;;;;;;;8.50;6.55;;;;;;;;;;5150972;27;20100;-58
2023/05/04 05:49:34;;;;;;;12.15;6.82;;;;;;;;;;5161831;27;20058;-58
2023/05/04 05:52:01;;;;;;;9.88;6.65;;;;;;;;;;5163260;27;20058;-58
2023/05/04 05:54:29;;;;;;;13.68;7.20;;;;;;;;;;5164819;27;20493;-59
2023/05/04 05:56:56;;;;;;;12.27;6.85;;;;;;;;;;5164072;27;20165;-56
2023/05/04 05:59:22;;;;;;;12.35;7.57;;;;;;;;;;5164292;27;20078;-57
2023/05/04 06:01:49;;;;;;;8.80;6.53;;;;;;;;;;5144610;27;20054;-58
2023/05/04 06:04:15;;;;;;;8.38;6.50;;;;;;;;;;5158444;27;20075;-57
2023/05/04 06:06:42;;;;;;;10.50;7.43;;;;;;;;;;5168321;27;20054;-58
2023/05/04 06:09:11;;;;;;;10.48;6.75;;;;;;;;;;5169348;27;20082;-58
2023/05/04 06:11:37;;;;;;;11.45;7.40;;;;;;;;;;5161884;27;20047;-58
2023/05/04 06:14:04;;;;;;;12.77;7.38;;;;;;;;;;5166888;27;20054;-59
2023/05/04 06:16:30;;;;;;;15.02;7.43;;;;;;;;;;5167301;27;20138;-55
2023/05/04 06:18:57;;;;;;;11.77;7.00;;;;;;;;;;5160983;27;20055;-59
2023/05/04 06:21:24;;;;;;;12.43;7.00;;;;;;;;;;5162548;27;20331;-55
2023/05/04 06:23:50;;;;;;;10.45;7.13;;;;;;;;;;5159532;27;20489;-58
2023/05/04 06:26:18;;;;;;;10.90;6.88;;;;;;;;;;5151913;27;20055;-58
2023/05/04 06:28:45;;;;;;;15.52;7.57;;;;;;;;;;5148056;27;20104;-58
2023/05/04 06:31:12;;;;;;;12.68;7.55;;;;;;;;;;5152371;27;20166;-55
2023/05/04 06:33:39;;;;;;;13.73;6.63;;;;;;;;;;5152944;27;20090;-58
2023/05/04 06:36:05;;;;;;;12.30;7.05;;;;;;;;;;5156093;27;20055;-58
2023/05/04 06:38:32;;;;;;;15.02;7.03;;;;;;;;;;5167479;27;20559;-58
2023/05/04 06:41:02;;;;;;;11.40;7.20;;;;;;;;;;5146605;27;20638;-57
2023/05/04 06:43:28;;;;;;;13.95;6.85;;;;;;;;;;5148036;27;20051;-57
2023/05/04 06:45:55;;;;;;;9.32;6.70;;;;;;;;;;5163280;27;20564;-59
2023/05/04 06:48:22;;;;;;;11.52;6.88;;;;;;;;;;5149682;27;20047;-59
2023/05/04 06:50:48;;;;;;;9.52;6.78;;;;;;;;;;5162950;27;20185;-61
2023/05/04 06:53:15;;;;;;;8.55;6.65;;;;;;;;;;5160895;27;20054;-61
2023/05/04 06:55:41;;;;;;;9.48;6.78;;;;;;;;;;5160381;27;20090;-57
2023/05/04 06:58:08;;;;;;;9.52;6.47;;;;;;;;;;5157195;27;20054;-57
2023/05/04 07:00:35;;;;;;;8.68;7.20;;;;;;;;;;5154622;27;20042;-58
2023/05/04 07:03:01;;;;;;;9.98;7.28;;;;;;;;;;5153367;27;20051;-61
2023/05/04 07:05:27;;;;;;;9.18;6.43;;;;;;;;;;5155031;27;20515;-56
2023/05/04 07:07:54;;;;;;;13.00;6.95;;;;;;;;;;5151536;27;20124;-58
2023/05/04 07:10:20;;;;;;;11.05;7.47;;;;;;;;;;5153402;27;20495;-57
2023/05/04 07:12:47;;;;;;;9.93;7.55;;;;;;;;;;5164713;27;20061;-59
2023/05/04 07:15:14;;;;;;;12.52;7.10;;;;;;;;;;5167032;27;20177;-57
2023/05/04 07:17:40;;;;;;;15.50;7.07;;;;;;;;;;5166554;27;20047;-56
2023/05/04 07:20:07;;;;;;;10.65;6.85;;;;;;;;;;5166355;27;20046;-59
2023/05/04 07:22:33;;;;;;;13.45;7.13;;;;;;;;;;5163804;27;20047;-57
2023/05/04 07:25:00;;;;;;;11.95;7.45;;;;;;;;;;5162829;27;20287;-58
2023/05/04 07:27:26;;;;;;;10.65;6.63;;;;;;;;;;5161749;27;20055;-59
2023/05/04 07:29:53;;;;;;;13.32;7.00;;;;;;;;;;5166034;27;20046;-58
2023/05/04 07:32:20;;;;;;;13.57;7.13;;;;;;;;;;5151109;27;20055;-59
2023/05/04 07:34:46;;;;;;;12.30;7.38;;;;;;;;;;5153470;27;20111;-58
2023/05/04 07:37:14;;;;;;;9.65;7.35;;;;;;;;;;5156602;27;20104;-57
2023/05/04 07:39:41;;;;;;;8.35;6.85;;;;;;;;;;5145992;27;20054;-55
2023/05/04 07:42:08;;;;;;;10.88;7.28;;;;;;;;;;5149960;27;20508;-58
2023/05/04 07:44:34;;;;;;;8.20;5.97;;;;;;;;;;5163944;27;20063;-59
2023/05/04 07:47:00;;;;;;;12.43;6.60;;;;;;;;;;5161079;27;20055;-58
2023/05/04 07:49:27;;;;;;;9.30;6.32;;;;;;;;;;5163340;27;20049;-58
2023/05/04 07:51:54;;;;;;;7.90;6.80;;;;;;;;;;5162945;27;20126;-57
2023/05/04 07:54:21;;;;;;;10.65;6.95;;;;;;;;;;5168139;27;20053;-58
2023/05/04 07:56:48;;;;;;;10.48;6.75;;;;;;;;;;5164102;27;20063;-56
2023/05/04 07:59:17;;;;;;;7.82;6.40;;;;;;;;;;5157157;27;20417;-58
2023/05/04 08:01:45;;;;;;;8.55;6.00;;;;;;;;;;5169100;27;20111;-58
2023/05/04 08:04:11;;;;;;;10.85;7.28;;;;;;;;;;5166350;27;20130;-59
2023/05/04 08:06:38;;;;;;;9.23;6.43;;;;;;;;;;5163721;27;20137;-58
2023/05/04 08:09:05;;;;;;;10.80;6.38;;;;;;;;;;5164454;27;20047;-58
2023/05/04 08:11:33;;;;;;;11.85;7.22;;;;;;;;;;5143721;27;20105;-59
2023/05/04 08:14:00;;;;;;;11.25;6.82;;;;;;;;;;5163743;27;20121;-59
2023/05/04 08:16:28;;;;;;;9.98;6.82;;;;;;;;;;5168255;27;20118;-58
2023/05/04 08:18:55;;;;;;;7.78;6.20;;;;;;;;;;5151664;27;20055;-58
2023/05/04 08:21:21;;;;;;;10.00;7.03;;;;;;;;;;5163396;27;20062;-58
2023/05/04 08:23:48;;;;;;;11.90;6.60;;;;;;;;;;5163939;27;20078;-58
2023/05/04 08:26:15;;;;;;;11.70;6.45;;;;;;;;;;5156032;27;20047;-58
2023/05/04 08:28:41;;;;;;;19.27;8.52;;;;;;;;;;5161782;27;20050;-58
2023/05/04 08:31:08;;;;;;;11.80;7.43;;;;;;;;;;5151780;27;20055;-59
2023/05/04 08:33:34;;;;;;;7.57;6.50;;;;;;;;;;5164462;27;20523;-58
2023/05/04 08:36:01;;;;;;;7.63;6.50;;;;;;;;;;5169089;27;20119;-59
2023/05/04 08:38:28;;;;;;;9.45;6.50;;;;;;;;;;5166599;27;20531;-58
2023/05/04 08:41:00;;;;;;;14.93;6.80;;;;;;;;;;5162639;27;20050;-57
2023/05/04 08:43:28;;;;;;;8.98;6.18;;;;;;;;;;5155438;27;20108;-58
2023/05/04 08:45:54;;;;;;;11.93;6.47;;;;;;;;;;5164622;27;20051;-59
2023/05/04 08:48:22;;;;;;;9.95;6.25;;;;;;;;;;5165154;27;20051;-58
2023/05/04 08:50:48;;;;;;;10.68;6.82;;;;;;;;;;5166409;27;20051;-58
2023/05/04 08:53:17;;;;;;;9.77;5.90;;;;;;;;;;5149063;27;20061;-53
2023/05/04 08:55:45;;;;;;;13.50;7.32;;;;;;;;;;5144431;27;20138;-57
2023/05/04 08:58:12;;;;;;;9.73;6.70;;;;;;;;;;5156096;27;20438;-58
2023/05/04 09:00:40;;;;;;;7.93;6.38;;;;;;;;;;5163839;27;20050;-58
2023/05/04 09:03:08;;;;;;;9.43;5.60;;;;;;;;;;5157958;27;20049;-57
2023/05/04 09:05:34;;;;;;;11.27;6.13;;;;;;;;;;5163100;27;20522;-58
2023/05/04 09:08:01;;;;;;;12.43;6.28;;;;;;;;;;5159803;27;20050;-58
2023/05/04 09:10:27;;;;;;;12.25;6.50;;;;;;;;;;5163432;27;20050;-56
2023/05/04 09:12:55;;;;;;;9.85;5.93;;;;;;;;;;5162207;27;20152;-58
2023/05/04 09:15:22;;;;;;;11.35;5.75;;;;;;;;;;5164232;27;20516;-59
2023/05/04 09:17:57;;;;;;;9.13;5.78;;;;;;;;;;5160519;27;21392;-58
2023/05/04 09:20:24;;;;;;;;;;;;;;;;;;5158017;27;20050;-58
2023/05/04 09:23:00;;;;;;;7.65;5.47;;;;;;;;;;5154992;27;43961;-57
2023/05/04 09:25:26;;;;;;;8.70;5.90;;;;;;;;;;5156066;27;20050;-58
2023/05/04 09:27:56;;;;;;;9.45;5.25;;;;;;;;;;5142752;27;20063;-57
2023/05/04 09:30:22;;;;;;;10.30;5.85;;;;;;;;;;5162656;27;20046;-58
2023/05/04 09:32:49;;;;;;;8.38;5.45;;;;;;;;;;5162796;27;20082;-57
2023/05/04 09:35:18;;;;;;;9.70;5.90;;;;;;;;;;5159153;27;20062;-58
2023/05/04 09:37:58;;;;;;;10.65;5.63;;;;;;;;;;5162018;27;20050;-57
2023/05/04 09:40:31;;;;;;;6.63;4.80;;;;;;;;;;5160578;27;20053;-57
2023/05/04 09:42:58;;;;;;;8.90;5.25;;;;;;;;;;5163664;27;20100;-57
2023/05/04 09:45:25;;;;;;;9.65;5.35;;;;;;;;;;5158980;27;20051;-58
2023/05/04 09:47:53;;;;;;;7.55;5.53;;;;;;;;;;5163763;27;20080;-58
2023/05/04 09:50:25;;;;;;;8.82;4.95;;;;;;;;;;5154299;27;20043;-56
2023/05/04 09:52:52;;;;;;;7.00;5.05;;;;;;;;;;5156834;27;20500;-58
2023/05/04 09:55:19;;;;;;;10.60;4.90;;;;;;;;;;5159962;27;20055;-59
2023/05/04 09:57:46;;;;;;;7.75;5.05;;;;;;;;;;5148843;27;20074;-59
2023/05/04 10:00:14;;;;;;;12.00;5.13;;;;;;;;;;5163797;27;20142;-58
2023/05/04 10:02:45;;;;;;;6.22;4.32;;;;;;;;;;5141899;27;20354;-58
2023/05/04 10:05:16;;;;;;;8.18;4.30;;;;;;;;;;5153647;27;20047;-59
2023/05/04 10:07:43;;;;;;;4.70;4.07;;;;;;;;;;5156359;27;20141;-57
2023/05/04 10:10:11;;;;;;;6.45;4.60;;;;;;;;;;5154731;27;20055;-60
2023/05/04 10:12:37;;;;;;;6.45;4.40;;;;;;;;;;5155428;27;20051;-59
2023/05/04 10:15:07;;;;;;;6.80;4.72;;;;;;;;;;5142339;27;20048;-59
2023/05/04 10:17:46;;;;;;;7.18;4.90;;;;;;;;;;5163455;27;20622;-59
2023/05/04 10:20:15;;;;;;;6.65;4.72;;;;;;;;;;5163175;27;20047;-59
2023/05/04 10:23:01;;;;;;;5.25;4.43;;;;;;;;;;5159851;27;20051;-59
2023/05/04 10:25:27;;;;;;;4.97;4.03;;;;;;;;;;5158349;27;20043;-57
2023/05/04 10:28:03;;;;;;;11.00;4.47;;;;;;;;;;5159738;27;20066;-59
2023/05/04 10:30:30;;;;;;;7.97;4.53;;;;;;;;;;5146038;27;20745;-59
2023/05/04 10:32:57;;;;;;;6.10;4.07;;;;;;;;;;5153689;27;20129;-60
2023/05/04 10:35:25;;;;;;;6.60;3.67;;;;;;;;;;5164068;27;20117;-58
2023/05/04 10:37:53;;;;;;;8.55;4.10;;;;;;;;;;5156724;27;20059;-60
2023/05/04 10:40:31;;;;;;;5.03;4.18;;;;;;;;;;5159359;27;20058;-60
2023/05/04 10:42:58;;;;;;;7.15;3.83;;;;;;;;;;5158635;27;20589;-59
2023/05/04 10:45:38;;;;;;;6.75;4.50;;;;;;;;;;5164066;27;20051;-60
2023/05/04 10:48:06;;;;;;;6.35;4.68;;;;;;;;;;5159385;27;20047;-59
2023/05/04 10:50:47;;;;;;;5.05;3.72;;;;;;;;;;5154556;27;20536;-58
2023/05/04 10:53:14;;;;;;;10.50;5.05;;;;;;;;;;5160241;27;20062;-49
2023/05/04 10:55:42;;;;;;;6.65;4.47;;;;;;;;;;5167942;27;20103;-60
2023/05/04 10:58:10;;;;;;;4.80;4.10;;;;;;;;;;5161623;27;20420;-60
2023/05/04 11:00:37;;;;;;;9.75;4.15;;;;;;;;;;5168599;27;20133;-60
2023/05/04 11:03:04;;;;;;;6.00;3.67;;;;;;;;;;5160902;27;20170;-59
2023/05/04 11:05:41;;;;;;;5.53;4.20;;;;;;;;;;5168732;27;20080;-61
2023/05/04 11:08:17;;;;;;;6.32;4.00;;;;;;;;;;5168069;27;20050;-60
2023/05/04 11:10:45;;;;;;;7.97;4.30;;;;;;;;;;5168603;27;20046;-61
2023/05/04 11:13:11;;;;;;;5.57;4.30;;;;;;;;;;5157655;27;20419;-60
2023/05/04 11:15:47;;;;;;;9.48;4.97;;;;;;;;;;5165002;27;20143;-60
2023/05/04 11:18:14;;;;;;;6.20;4.55;;;;;;;;;;5157964;27;20808;-60
2023/05/04 11:20:41;;;;;;;9.88;5.00;;;;;;;;;;5165234;27;20082;-60
2023/05/04 11:23:09;;;;;;;7.55;4.53;;;;;;;;;;5150871;27;20130;-60
2023/05/04 11:25:36;;;;;;;8.82;4.30;;;;;;;;;;5149041;27;20047;-60
2023/05/04 11:28:03;;;;;;;8.80;4.38;;;;;;;;;;5164539;27;20123;-58
2023/05/04 11:30:31;;;;;;;6.78;3.50;;;;;;;;;;5161360;27;20170;-60
2023/05/04 11:32:59;;;;;;;5.25;3.83;;;;;;;;;;5159912;27;20134;-60
2023/05/04 11:35:26;;;;;;;6.18;3.78;;;;;;;;;;5156094;27;20057;-61
2023/05/04 11:37:54;;;;;;;6.13;3.83;;;;;;;;;;5163651;27;20066;-61
2023/05/04 11:40:24;;;;;;;7.95;3.70;;;;;;;;;;5164769;27;20059;-61
2023/05/04 11:42:51;;;;;;;7.35;3.92;;;;;;;;;;5163579;27;20130;-61
2023/05/04 11:45:22;;;;;;;6.78;3.50;;;;;;;;;;5165195;27;20050;-62
2023/05/04 11:47:50;;;;;;;6.68;3.78;;;;;;;;;;5162845;27;20492;-59
2023/05/04 11:50:17;;;;;;;5.68;3.80;;;;;;;;;;5165279;27;20436;-60
2023/05/04 11:52:44;;;;;;;4.60;3.47;;;;;;;;;;5164642;27;20426;-60
2023/05/04 11:55:11;;;;;;;5.80;3.15;;;;;;;;;;5166070;27;20051;-52
2023/05/04 11:57:37;;;;;;;6.53;3.58;;;;;;;;;;5165315;27;20055;-53
2023/05/04 12:00:05;;;;;;;6.32;3.05;;;;;;;;;;5160452;27;20055;-56
2023/05/04 12:02:32;;;;;;;5.50;3.70;;;;;;;;;;5157185;27;20104;-55
2023/05/04 12:05:00;;;;;;;4.40;3.25;;;;;;;;;;5159104;27;20042;-33
2023/05/04 12:07:27;;;;;;;6.65;3.60;;;;;;;;;;5164286;27;20181;-59
2023/05/04 12:09:54;;;;;;;5.43;3.70;;;;;;;;;;5166329;27;20050;-58
2023/05/04 12:12:20;;;;;;;5.70;3.65;;;;;;;;;;5159387;27;20054;-59
2023/05/04 12:14:53;;;;;;;5.53;3.97;;;;;;;;;;5153437;27;20527;-60
2023/05/04 12:17:20;;;;;;;7.28;3.63;;;;;;;;;;5166143;27;20055;-59
2023/05/04 12:19:49;;;;;;;7.75;3.50;;;;;;;;;;5162249;27;20495;-38
2023/05/04 12:22:16;;;;;;;7.00;4.22;;;;;;;;;;5166349;27;20377;-60
2023/05/04 12:24:42;;;;;;;7.75;4.28;;;;;;;;;;5148888;27;20055;-59
2023/05/04 12:27:12;;;;;;;5.47;4.20;;;;;;;;;;5148143;27;20497;-60
2023/05/04 12:29:39;;;;;;;6.60;4.40;;;;;;;;;;5126494;27;20058;-59
2023/05/04 12:32:06;;;;;;;6.32;4.10;;;;;;;;;;5152752;27;20092;-60
2023/05/04 12:34:32;;;;;;;10.82;4.05;;;;;;;;;;5158255;27;20111;-42
2023/05/04 12:36:59;;;;;;;5.90;4.85;;;;;;;;;;5163886;27;20055;-59
2023/05/04 12:39:27;;;;;;;7.45;4.45;;;;;;;;;;5143485;27;20130;-60
2023/05/04 12:41:54;;;;;;;5.43;3.83;;;;;;;;;;5149022;27;20107;-60
2023/05/04 12:44:20;;;;;;;6.28;4.78;;;;;;;;;;5153410;27;20561;-60
2023/05/04 12:46:46;;;;;;;6.85;4.78;;;;;;;;;;5160287;27;20054;-61
2023/05/04 12:49:13;;;;;;;9.13;4.88;;;;;;;;;;5160510;27;20062;-42
2023/05/04 12:51:39;;;;;;;6.57;4.47;;;;;;;;;;5149616;27;20789;-58
2023/05/04 12:54:06;;;;;;;6.32;4.50;;;;;;;;;;5164446;27;20134;-59
2023/05/04 12:56:32;;;;;;;5.13;4.65;;;;;;;;;;5162231;27;20051;-57
2023/05/04 12:58:59;;;;;;;10.13;3.97;;;;;;;;;;5162300;27;20510;-59
2023/05/04 13:01:26;;;;;;;8.43;4.93;;;;;;;;;;5166672;27;20051;-59
2023/05/04 13:03:53;;;;;;;9.02;5.18;;;;;;;;;;5144447;27;20462;-59
2023/05/04 13:06:19;;;;;;;11.63;4.53;;;;;;;;;;5153929;27;20047;-59
2023/05/04 13:08:46;;;;;;;6.45;4.75;;;;;;;;;;5164875;27;20069;-59
2023/05/04 13:11:13;;;;;;;8.65;6.28;;;;;;;;;;5164376;27;20058;-59
2023/05/04 13:13:40;;;;;;;11.75;4.43;;;;;;;;;;5146135;27;20051;-38
2023/05/04 13:16:06;;;;;;;5.00;4.18;;;;;;;;;;5166279;27;20050;-37
2023/05/04 13:18:33;;;;;;;6.85;5.13;;;;;;;;;;5163035;27;20085;-46
2023/05/04 13:20:59;;;;;;;9.65;4.97;;;;;;;;;;5162002;27;20554;-59
2023/05/04 13:23:25;;;;;;;6.32;5.40;;;;;;;;;;5165594;27;20050;-59
2023/05/04 13:25:52;;;;;;;8.15;5.90;;;;;;;;;;5165161;27;20083;-59
2023/05/04 13:28:18;;;;;;;9.85;5.68;;;;;;;;;;5159144;27;20133;-60
2023/05/04 13:30:45;;;;;;;6.82;5.65;;;;;;;;;;5144307;27;20922;-59
2023/05/04 13:33:12;;;;;;;8.15;5.43;;;;;;;;;;5143467;27;20051;-60
2023/05/04 13:35:55;;;;;;;6.35;5.15;;;;;;;;;;5144629;27;20047;-59
2023/05/04 13:38:22;;;;;;;10.68;5.55;;;;;;;;;;5143693;27;20063;-59
2023/05/04 13:40:48;;;;;;;9.05;5.97;;;;;;;;;;5158089;27;20849;-58
2023/05/04 13:43:14;;;;;;;7.88;5.35;;;;;;;;;;5164856;27;20573;-60
2023/05/04 13:45:41;;;;;;;8.90;6.13;;;;;;;;;;5165339;27;20053;-59
2023/05/04 13:48:07;;;;;;;9.25;6.22;;;;;;;;;;5164789;27;20582;-59
2023/05/04 13:50:33;;;;;;;10.70;6.45;;;;;;;;;;5161950;27;20134;-58
2023/05/04 13:53:01;;;;;;;7.55;6.07;;;;;;;;;;5164525;27;20058;-59
2023/05/04 13:55:28;;;;;;;6.25;5.07;;;;;;;;;;5166295;27;20078;-59
2023/05/04 13:57:54;;;;;;;6.90;5.90;;;;;;;;;;5167756;27;20047;-59
2023/05/04 14:00:21;;;;;;;7.55;5.65;;;;;;;;;;5167425;27;20145;-59
2023/05/04 14:02:47;;;;;;;10.57;5.85;;;;;;;;;;5166063;27;20047;-59
2023/05/04 14:05:14;;;;;;;7.78;5.85;;;;;;;;;;5156623;27;20046;-59
2023/05/04 14:07:40;;;;;;;6.13;4.80;;;;;;;;;;5165540;27;20053;-60
2023/05/04 14:10:07;;;;;;;7.57;5.50;;;;;;;;;;5164969;27;20059;-59
2023/05/04 14:12:33;;;;;;;8.27;5.30;;;;;;;;;;5156882;27;20097;-58
2023/05/04 14:15:00;;;;;;;6.13;5.15;;;;;;;;;;5164180;27;20719;-58
2023/05/04 14:17:26;;;;;;;9.90;5.65;;;;;;;;;;5161865;27;20051;-58
2023/05/04 14:19:53;;;;;;;6.82;4.68;;;;;;;;;;5144341;27;20518;-58
2023/05/04 14:22:19;;;;;;;8.38;5.60;;;;;;;;;;5148121;27;20057;-58
2023/05/04 14:24:46;;;;;;;7.90;5.07;;;;;;;;;;5162003;27;20082;-60
2023/05/04 14:27:12;;;;;;;6.63;5.30;;;;;;;;;;5140255;27;20050;-59
2023/05/04 14:29:38;;;;;;;16.60;4.28;;;;;;;;;;5158169;27;20143;-60
2023/05/04 14:32:05;;;;;;;7.68;4.80;;;;;;;;;;5164417;27;20141;-59
2023/05/04 14:34:31;;;;;;;9.43;5.93;;;;;;;;;;5168128;27;20047;-59
2023/05/04 14:36:58;;;;;;;6.25;5.03;;;;;;;;;;5167375;27;20054;-58
2023/05/04 14:39:24;;;;;;;7.50;5.13;;;;;;;;;;5167087;27;20100;-59